Time;durP1;ratioP1;P1;durP2;ratioP2;P2;SDS_P1;SDS_P2;PMS_P1;PMS_P2;Temp;Humidity;BMP_temperature;BMP_pressure;BME280_temperature;BME280_humidity;BME280_pressure;Samples;Min_cycle;Max_cycle;Signal;HPM_P1;HPM_P2
2023/09/06 00:00:58;;;;;;;;;;;;;;;;;;5081050;28;19911;-72
2023/09/06 00:03:26;;;;;;;;;;;;;;;;;;5064558;28;19904;-73
2023/09/06 00:05:53;;;;;;;;;;;;;;;;;;5079714;28;19916;-73
2023/09/06 00:08:19;;;;;;;;;;;;;;;;;;5078878;28;19912;-74
2023/09/06 00:10:46;;;;;;;;;;;;;;;;;;5076946;28;19911;-73
2023/09/06 00:13:12;;;;;;;;;;;;;;;;;;5064812;28;19911;-74
2023/09/06 00:15:38;;;;;;;;;;;;;;;;;;5061376;28;19903;-73
2023/09/06 00:18:05;;;;;;;;;;;;;;;;;;5059728;28;19948;-74
2023/09/06 00:20:34;;;;;;;;;;;;;;;;;;5078673;28;19950;-74
2023/09/06 00:23:00;;;;;;;;;;;;;;;;;;5081077;28;19904;-75
2023/09/06 00:25:26;;;;;;;;;;;;;;;;;;5081248;28;19915;-75
2023/09/06 00:27:52;;;;;;;;;;;;;;;;;;5081157;28;19908;-73
2023/09/06 00:30:21;;;;;;;;;;;;;;;;;;5060668;28;19944;-73
2023/09/06 00:32:47;;;;;;;;;;;;;;;;;;5079533;28;19905;-73
2023/09/06 00:35:14;;;;;;;;;;;;;;;;;;5063607;28;19904;-73
2023/09/06 00:37:40;;;;;;;;;;;;;;;;;;5078954;28;19911;-75
2023/09/06 00:40:17;;;;;;;;;;;;;;;;;;5078192;28;19904;-73
2023/09/06 00:42:42;;;;;;;;;;;;;;;;;;5078423;28;19971;-73
2023/09/06 00:45:08;;;;;;;;;;;;;;;;;;5081289;28;19959;-73
2023/09/06 00:47:34;;;;;;;;;;;;;;;;;;5079478;28;19911;-73
2023/09/06 00:50:00;;;;;;;;;;;;;;;;;;5078121;28;20277;-73
2023/09/06 00:52:26;;;;;;;;;;;;;;;;;;5077906;28;19904;-73
2023/09/06 00:54:52;;;;;;;;;;;;;;;;;;5061339;28;19935;-72
2023/09/06 00:57:18;;;;;;;;;;;;;;;;;;5081172;28;20312;-73
2023/09/06 00:59:44;;;;;;;;;;;;;;;;;;5078065;28;19904;-73
2023/09/06 01:02:10;;;;;;;;;;;;;;;;;;5077927;28;19908;-73
2023/09/06 01:04:35;;;;;;;;;;;;;;;;;;5076112;28;20425;-73
2023/09/06 01:07:01;;;;;;;;;;;;;;;;;;5062331;28;19905;-72
2023/09/06 01:09:29;;;;;;;;;;;;;;;;;;5074775;28;19908;-72
2023/09/06 01:11:55;;;;;;;;;;;;;;;;;;5077633;28;19912;-72
2023/09/06 01:14:21;;;;;;;;;;;;;;;;;;5077440;28;19904;-72
2023/09/06 01:16:48;;;;;;;;;;;;;;;;;;5078245;28;19912;-72
2023/09/06 01:19:14;;;;;;;;;;;;;;;;;;5081094;28;19904;-73
2023/09/06 01:21:40;;;;;;;;;;;;;;;;;;5078372;28;20394;-72
2023/09/06 01:24:06;;;;;;;;;;;;;;;;;;5075975;28;19916;-72
2023/09/06 01:26:32;;;;;;;;;;;;;;;;;;5077456;28;19908;-73
2023/09/06 01:28:58;;;;;;;;;;;;;;;;;;5079319;28;19905;-72
2023/09/06 01:31:23;;;;;;;;;;;;;;;;;;5080761;28;19904;-73
2023/09/06 01:33:49;;;;;;;;;;;;;;;;;;5077346;28;20052;-73
2023/09/06 01:36:15;;;;;;;;;;;;;;;;;;5077386;28;19904;-73
2023/09/06 01:38:41;;;;;;;;;;;;;;;;;;5076927;28;19904;-73
2023/09/06 01:41:07;;;;;;;;;;;;;;;;;;5080597;28;20374;-72
2023/09/06 01:43:33;;;;;;;;;;;;;;;;;;5060918;28;19908;-73
2023/09/06 01:45:59;;;;;;;;;;;;;;;;;;5076979;28;19919;-73
2023/09/06 01:48:25;;;;;;;;;;;;;;;;;;5076881;28;19919;-73
2023/09/06 01:50:51;;;;;;;;;;;;;;;;;;5078409;28;19939;-74
2023/09/06 01:53:17;;;;;;;;;;;;;;;;;;5080666;28;19990;-73
2023/09/06 01:55:43;;;;;;;;;;;;;;;;;;5059517;28;19918;-73
2023/09/06 01:58:09;;;;;;;;;;;;;;;;;;5077050;28;19905;-74
2023/09/06 02:00:37;;;;;;;;;;;;;;;;;;5077220;28;19923;-74
2023/09/06 02:03:03;;;;;;;;;;;;;;;;;;5080115;28;19903;-74
2023/09/06 02:05:31;;;;;;;;;;;;;;;;;;5060050;28;19935;-73
2023/09/06 02:07:57;;;;;;;;;;;;;;;;;;5076886;28;19940;-74
2023/09/06 02:10:23;;;;;;;;;;;;;;;;;;5071625;28;20351;-73
2023/09/06 02:12:49;;;;;;;;;;;;;;;;;;5078194;28;19915;-73
2023/09/06 02:15:15;;;;;;;;;;;;;;;;;;5080464;28;19904;-73
2023/09/06 02:17:44;;;;;;;;;;;;;;;;;;5077491;28;19904;-72
2023/09/06 02:20:17;;;;;;;;;;;;;;;;;;5058852;28;19905;-73
2023/09/06 02:22:43;;;;;;;;;;;;;;;;;;5076777;28;20260;-74
2023/09/06 02:25:09;;;;;;;;;;;;;;;;;;5079959;28;19912;-74
2023/09/06 02:27:35;;;;;;;;;;;;;;;;;;5078623;28;19939;-73
2023/09/06 02:30:01;;;;;;;;;;;;;;;;;;5082649;28;19958;-74
2023/09/06 02:32:27;;;;;;;;;;;;;;;;;;5080383;28;19912;-74
2023/09/06 02:34:53;;;;;;;;;;;;;;;;;;5080289;28;19911;-74
2023/09/06 02:37:18;;;;;;;;;;;;;;;;;;5065583;28;19904;-73
2023/09/06 02:39:44;;;;;;;;;;;;;;;;;;5062606;28;20338;-74
2023/09/06 02:42:10;;;;;;;;;;;;;;;;;;5085879;28;19905;-74
2023/09/06 02:44:36;;;;;;;;;;;;;;;;;;5083089;28;20003;-73
2023/09/06 02:47:03;;;;;;;;;;;;;;;;;;5084319;28;19972;-74
2023/09/06 02:49:29;;;;;;;;;;;;;;;;;;5083077;28;19932;-75
2023/09/06 02:51:56;;;;;;;;;;;;;;;;;;5080669;28;19942;-73
2023/09/06 02:54:22;;;;;;;;;;;;;;;;;;5062397;28;19904;-72
2023/09/06 02:56:48;;;;;;;;;;;;;;;;;;5081197;28;20000;-76
2023/09/06 02:59:15;;;;;;;;;;;;;;;;;;5083739;28;19904;-75
2023/09/06 03:01:44;;;;;;;;;;;;;;;;;;5089947;28;19904;-73
2023/09/06 03:04:11;;;;;;;;;;;;;;;;;;5080043;28;19904;-74
2023/09/06 03:06:37;;;;;;;;;;;;;;;;;;5072377;28;20431;-74
2023/09/06 03:09:06;;;;;;;;;;;;;;;;;;5080639;28;19904;-75
2023/09/06 03:11:32;;;;;;;;;;;;;;;;;;5081537;28;19915;-75
2023/09/06 03:13:58;;;;;;;;;;;;;;;;;;5058730;28;19908;-75
2023/09/06 03:16:24;;;;;;;;;;;;;;;;;;5080004;28;20296;-75
2023/09/06 03:18:52;;;;;;;;;;;;;;;;;;5062972;28;19912;-75
2023/09/06 03:21:18;;;;;;;;;;;;;;;;;;5083761;28;19998;-75
2023/09/06 03:23:44;;;;;;;;;;;;;;;;;;5080157;28;19939;-76
2023/09/06 03:26:10;;;;;;;;;;;;;;;;;;5067340;22;19921;-74
2023/09/06 03:28:41;;;;;;;;;;;;;;;;;;5041048;28;19919;-73
2023/09/06 03:31:08;;;;;;;;;;;;;;;;;;5046949;28;19905;-72
2023/09/06 03:33:35;;;;;;;;;;;;;;;;;;5044087;28;19916;-72
2023/09/06 03:36:01;;;;;;;;;;;;;;;;;;5040559;28;19905;-72
2023/09/06 03:38:28;;;;;;;;;;;;;;;;;;5025485;28;19905;-72
2023/09/06 03:40:54;;;;;;;;;;;;;;;;;;5043677;28;19905;-72
2023/09/06 03:43:29;;;;;;;;;;;;;;;;;;5042837;28;19905;-72
2023/09/06 03:45:55;;;;;;;;;;;;;;;;;;5031969;28;20391;-72
2023/09/06 03:48:23;;;;;;;;;;;;;;;;;;5039098;28;19905;-72
2023/09/06 03:50:49;;;;;;;;;;;;;;;;;;5039878;28;19937;-72
2023/09/06 03:53:15;;;;;;;;;;;;;;;;;;5042757;28;19919;-72
2023/09/06 03:55:44;;;;;;;;;;;;;;;;;;5040010;28;19991;-72
2023/09/06 03:58:12;;;;;;;;;;;;;;;;;;5039144;28;19996;-74
2023/09/06 04:00:47;;;;;;;;;;;;;;;;;;5039164;28;19909;-74
2023/09/06 04:03:13;;;;;;;;;;;;;;;;;;5033303;28;19927;-74
2023/09/06 04:05:40;;;;;;;;;;;;;;;;;;5040211;28;20356;-74
2023/09/06 04:08:09;;;;;;;;;;;;;;;;;;5038961;28;20494;-73
2023/09/06 04:10:36;;;;;;;;;;;;;;;;;;5033661;28;19909;-74
2023/09/06 04:13:02;;;;;;;;;;;;;;;;;;5041801;28;19912;-73
2023/09/06 04:15:29;;;;;;;;;;;;;;;;;;5041370;28;19909;-76
2023/09/06 04:17:58;;;;;;;;;;;;;;;;;;5015208;28;19909;-74
2023/09/06 04:20:26;;;;;;;;;;;;;;;;;;5038606;28;20003;-74
2023/09/06 04:22:54;;;;;;;;;;;;;;;;;;5037041;28;19966;-75
2023/09/06 04:25:22;;;;;;;;;;;;;;;;;;5041860;28;20432;-74
2023/09/06 04:27:48;;;;;;;;;;;;;;;;;;5030391;28;19905;-74
2023/09/06 04:30:16;;;;;;;;;;;;;;;;;;5038583;28;19905;-74
2023/09/06 04:32:42;;;;;;;;;;;;;;;;;;5038487;28;19905;-74
2023/09/06 04:35:08;;;;;;;;;;;;;;;;;;5038787;28;19917;-75
2023/09/06 04:37:35;;;;;;;;;;;;;;;;;;5038838;28;20284;-75
2023/09/06 04:40:01;;;;;;;;;;;;;;;;;;5038305;28;19913;-74
2023/09/06 04:42:27;;;;;;;;;;;;;;;;;;5038276;28;19905;-75
2023/09/06 04:44:53;;;;;;;;;;;;;;;;;;5039523;28;20019;-75
2023/09/06 04:47:18;;;;;;;;;;;;;;;;;;5041643;28;19940;-75
2023/09/06 04:49:45;;;;;;;;;;;;;;;;;;5020532;28;20387;-76
2023/09/06 04:52:11;;;;;;;;;;;;;;;;;;5020323;28;19911;-76
2023/09/06 04:54:37;;;;;;;;;;;;;;;;;;5038115;28;19991;-74
2023/09/06 04:57:03;;;;;;;;;;;;;;;;;;5040887;28;20379;-73
2023/09/06 04:59:31;;;;;;;;;;;;;;;;;;5040385;28;19905;-74
2023/09/06 05:01:57;;;;;;;;;;;;;;;;;;5037727;28;20578;-75
2023/09/06 05:04:23;;;;;;;;;;;;;;;;;;5037183;28;19944;-75
2023/09/06 05:06:49;;;;;;;;;;;;;;;;;;5018282;28;20000;-74
2023/09/06 05:09:15;;;;;;;;;;;;;;;;;;5018802;28;20344;-76
2023/09/06 05:11:41;;;;;;;;;;;;;;;;;;5037836;28;19905;-76
2023/09/06 05:14:07;;;;;;;;;;;;;;;;;;5037990;28;19909;-75
2023/09/06 05:16:33;;;;;;;;;;;;;;;;;;5037784;28;20248;-76
2023/09/06 05:18:59;;;;;;;;;;;;;;;;;;5039459;28;19911;-76
2023/09/06 05:21:25;;;;;;;;;;;;;;;;;;5040660;28;19991;-77
2023/09/06 05:23:51;;;;;;;;;;;;;;;;;;5037428;28;19985;-76
2023/09/06 05:26:16;;;;;;;;;;;;;;;;;;5037290;28;20372;-76
2023/09/06 05:28:42;;;;;;;;;;;;;;;;;;5037235;28;19912;-76
2023/09/06 05:31:09;;;;;;;;;;;;;;;;;;5040942;28;20330;-76
2023/09/06 05:33:35;;;;;;;;;;;;;;;;;;5021313;28;20509;-77
2023/09/06 05:36:01;;;;;;;;;;;;;;;;;;5036789;28;19912;-75
2023/09/06 05:38:26;;;;;;;;;;;;;;;;;;5037557;28;19909;-74
2023/09/06 05:40:53;;;;;;;;;;;;;;;;;;5046864;28;20280;-75
2023/09/06 05:43:19;;;;;;;;;;;;;;;;;;5040761;28;19916;-76
2023/09/06 05:45:45;;;;;;;;;;;;;;;;;;5037523;28;19916;-76
2023/09/06 05:48:10;;;;;;;;;;;;;;;;;;5037175;28;20368;-76
2023/09/06 05:50:36;;;;;;;;;;;;;;;;;;5039191;28;19905;-77
2023/09/06 05:53:02;;;;;;;;;;;;;;;;;;5022793;28;19916;-76
2023/09/06 05:55:28;;;;;;;;;;;;;;;;;;5022041;28;20376;-77
2023/09/06 05:57:54;;;;;;;;;;;;;;;;;;5015478;28;19998;-77
2023/09/06 06:00:21;;;;;;;;;;;;;;;;;;5034988;28;19905;-77
2023/09/06 06:02:47;;;;;;;;;;;;;;;;;;5037719;28;19905;-76
2023/09/06 06:05:14;;;;;;;;;;;;;;;;;;5040697;28;19915;-75
2023/09/06 06:07:40;;;;;;;;;;;;;;;;;;5038022;28;19916;-76
2023/09/06 06:10:08;;;;;;;;;;;;;;;;;;5031626;28;19912;-78
2023/09/06 06:12:34;;;;;;;;;;;;;;;;;;5045736;28;19904;-75
2023/09/06 06:15:00;;;;;;;;;;;;;;;;;;5047555;28;19911;-77
2023/09/06 06:17:27;;;;;;;;;;;;;;;;;;5028905;28;20324;-77
2023/09/06 06:19:53;;;;;;;;;;;;;;;;;;5036460;28;19909;-78
2023/09/06 06:22:19;;;;;;;;;;;;;;;;;;5055770;28;19905;-77
2023/09/06 06:32:53;;;;;;;;;;;;;;;;;;5038980;28;19970;-75
2023/09/06 06:43:53;;;;;;;;;;;;;;;;;;4995216;28;19902;-76
2023/09/06 06:46:19;;;;;;;;;;;;;;;;;;4993507;28;20452;-76
2023/09/06 06:48:45;;;;;;;;;;;;;;;;;;4993501;28;19941;-77
2023/09/06 06:51:11;;;;;;;;;;;;;;;;;;5014041;28;19955;-76
2023/09/06 06:53:37;;;;;;;;;;;;;;;;;;5014474;28;20000;-76
2023/09/06 06:56:03;;;;;;;;;;;;;;;;;;5015575;28;19966;-77
2023/09/06 06:58:29;;;;;;;;;;;;;;;;;;5016152;28;19910;-76
2023/09/06 07:00:55;;;;;;;;;;;;;;;;;;5016440;28;20296;-76
2023/09/06 07:03:21;;;;;;;;;;;;;;;;;;5016419;28;19911;-77
2023/09/06 07:05:47;;;;;;;;;;;;;;;;;;5014708;28;19909;-76
2023/09/06 07:08:13;;;;;;;;;;;;;;;;;;5015412;28;19980;-76
2023/09/06 07:10:39;;;;;;;;;;;;;;;;;;5015367;28;20353;-77
2023/09/06 07:13:05;;;;;;;;;;;;;;;;;;5012489;28;20000;-77
2023/09/06 07:15:31;;;;;;;;;;;;;;;;;;5015915;28;19905;-77
2023/09/06 07:17:57;;;;;;;;;;;;;;;;;;5015656;28;19905;-76
2023/09/06 07:20:23;;;;;;;;;;;;;;;;;;5015616;28;19917;-76
2023/09/06 07:22:48;;;;;;;;;;;;;;;;;;5015058;28;19905;-77
2023/09/06 07:25:15;;;;;;;;;;;;;;;;;;5014443;28;19929;-75
2023/09/06 07:27:41;;;;;;;;;;;;;;;;;;5014823;28;19909;-75
2023/09/06 07:30:07;;;;;;;;;;;;;;;;;;5014681;28;19932;-76
2023/09/06 07:32:33;;;;;;;;;;;;;;;;;;5014741;28;20369;-78
2023/09/06 07:34:59;;;;;;;;;;;;;;;;;;5014888;28;19913;-77
2023/09/06 07:37:25;;;;;;;;;;;;;;;;;;5015181;28;19905;-76
2023/09/06 07:39:51;;;;;;;;;;;;;;;;;;5014635;28;20265;-77
2023/09/06 07:42:17;;;;;;;;;;;;;;;;;;5013213;28;19909;-77
2023/09/06 07:44:43;;;;;;;;;;;;;;;;;;5014008;28;20387;-77
2023/09/06 07:47:09;;;;;;;;;;;;;;;;;;4994743;28;19909;-76
2023/09/06 07:49:35;;;;;;;;;;;;;;;;;;4995009;28;19995;-77
2023/09/06 07:52:04;;;;;;;;;;;;;;;;;;4994524;28;19956;-76
2023/09/06 07:54:31;;;;;;;;;;;;;;;;;;4998787;28;19910;-75
2023/09/06 07:56:57;;;;;;;;;;;;;;;;;;5011272;28;20432;-76
2023/09/06 07:59:23;;;;;;;;;;;;;;;;;;5012264;28;20013;-76
2023/09/06 08:01:49;;;;;;;;;;;;;;;;;;5012685;28;20004;-76
2023/09/06 08:04:18;;;;;;;;;;;;;;;;;;5012255;28;19996;-76
2023/09/06 08:06:44;;;;;;;;;;;;;;;;;;5011921;28;19947;-77
2023/09/06 08:09:10;;;;;;;;;;;;;;;;;;5013742;28;20300;-77
2023/09/06 08:11:36;;;;;;;;;;;;;;;;;;5013967;28;20365;-76
2023/09/06 08:14:02;;;;;;;;;;;;;;;;;;5013828;28;19917;-78
2023/09/06 08:16:28;;;;;;;;;;;;;;;;;;5013753;28;19928;-77
2023/09/06 08:18:55;;;;;;;;;;;;;;;;;;5013513;28;19906;-76
2023/09/06 08:21:21;;;;;;;;;;;;;;;;;;5014015;28;19928;-76
2023/09/06 08:23:47;;;;;;;;;;;;;;;;;;5013854;28;20373;-76
2023/09/06 08:26:13;;;;;;;;;;;;;;;;;;5013960;28;19910;-77
2023/09/06 08:28:39;;;;;;;;;;;;;;;;;;5013141;28;20246;-76
2023/09/06 08:31:05;;;;;;;;;;;;;;;;;;5012318;28;19913;-76
2023/09/06 08:33:32;;;;;;;;;;;;;;;;;;5013768;28;19912;-76
2023/09/06 08:35:58;;;;;;;;;;;;;;;;;;5013689;28;20009;-76
2023/09/06 08:38:24;;;;;;;;;;;;;;;;;;5012792;28;19905;-77
2023/09/06 08:40:50;;;;;;;;;;;;;;;;;;5013529;28;19913;-77
2023/09/06 08:43:18;;;;;;;;;;;;;;;;;;5013552;28;19916;-77
2023/09/06 08:45:44;;;;;;;;;;;;;;;;;;5013260;28;19920;-76
2023/09/06 08:48:09;;;;;;;;;;;;;;;;;;5013073;28;19905;-76
2023/09/06 08:50:35;;;;;;;;;;;;;;;;;;5013053;28;20008;-76
2023/09/06 08:53:01;;;;;;;;;;;;;;;;;;5012069;28;19988;-76
2023/09/06 08:55:27;;;;;;;;;;;;;;;;;;5012737;28;19913;-76
2023/09/06 08:57:53;;;;;;;;;;;;;;;;;;5012928;28;20340;-76
2023/09/06 09:00:23;;;;;;;;;;;;;;;;;;5013192;28;20393;-76
2023/09/06 09:02:49;;;;;;;;;;;;;;;;;;5013138;28;19905;-77
2023/09/06 09:05:15;;;;;;;;;;;;;;;;;;5012829;28;19916;-77
2023/09/06 09:07:41;;;;;;;;;;;;;;;;;;5012699;28;19913;-76
2023/09/06 09:10:07;;;;;;;;;;;;;;;;;;5013028;28;19941;-77
2023/09/06 09:12:33;;;;;;;;;;;;;;;;;;5012980;28;19944;-77
2023/09/06 09:14:59;;;;;;;;;;;;;;;;;;5012771;28;20392;-77
2023/09/06 09:17:25;;;;;;;;;;;;;;;;;;5011409;28;19928;-74
2023/09/06 09:19:51;;;;;;;;;;;;;;;;;;5011344;28;20322;-77
2023/09/06 09:22:17;;;;;;;;;;;;;;;;;;5013290;28;19905;-76
2023/09/06 09:24:44;;;;;;;;;;;;;;;;;;5038607;22;19975;-75
2023/09/06 09:27:10;;;;;;;;;;;;;;;;;;5031940;28;20353;-74
2023/09/06 09:29:36;;;;;;;;;;;;;;;;;;5031414;28;20000;-74
2023/09/06 09:32:03;;;;;;;;;;;;;;;;;;5032336;28;19951;-74
2023/09/06 09:34:29;;;;;;;;;;;;;;;;;;5032334;28;20296;-75
2023/09/06 09:36:55;;;;;;;;;;;;;;;;;;5032023;28;19905;-74
2023/09/06 09:39:21;;;;;;;;;;;;;;;;;;5009750;28;19909;-73
2023/09/06 09:41:47;;;;;;;;;;;;;;;;;;5012768;28;19909;-73
2023/09/06 09:44:13;;;;;;;;;;;;;;;;;;5012451;28;19909;-73
2023/09/06 09:46:39;;;;;;;;;;;;;;;;;;5012361;28;19920;-73
2023/09/06 09:49:05;;;;;;;;;;;;;;;;;;5011939;28;19909;-73
2023/09/06 09:51:31;;;;;;;;;;;;;;;;;;5012255;28;19959;-74
2023/09/06 09:53:57;;;;;;;;;;;;;;;;;;5012365;28;19906;-74
2023/09/06 09:56:23;;;;;;;;;;;;;;;;;;5012346;28;19916;-74
2023/09/06 09:58:49;;;;;;;;;;;;;;;;;;5012075;28;19905;-74
2023/09/06 10:01:15;;;;;;;;;;;;;;;;;;5012274;28;20293;-74
2023/09/06 10:03:42;;;;;;;;;;;;;;;;;;5012078;28;19906;-74
2023/09/06 10:06:08;;;;;;;;;;;;;;;;;;5011999;28;19916;-74
2023/09/06 10:08:35;;;;;;;;;;;;;;;;;;5010777;28;19906;-74
2023/09/06 10:11:01;;;;;;;;;;;;;;;;;;5012087;28;19953;-74
2023/09/06 10:13:27;;;;;;;;;;;;;;;;;;5011931;28;20084;-74
2023/09/06 10:15:53;;;;;;;;;;;;;;;;;;5011712;28;20058;-74
2023/09/06 10:18:18;;;;;;;;;;;;;;;;;;5011688;28;19911;-74
2023/09/06 10:20:45;;;;;;;;;;;;;;;;;;4993148;28;20000;-73
2023/09/06 10:23:12;;;;;;;;;;;;;;;;;;5011826;28;20385;-74
2023/09/06 10:25:38;;;;;;;;;;;;;;;;;;5013011;28;20296;-74
2023/09/06 10:28:04;;;;;;;;;;;;;;;;;;5014496;28;19911;-73
2023/09/06 10:30:30;;;;;;;;;;;;;;;;;;5014923;28;19952;-73
2023/09/06 10:32:56;;;;;;;;;;;;;;;;;;5014283;28;19905;-74
2023/09/06 10:35:22;;;;;;;;;;;;;;;;;;5012667;28;19909;-73
2023/09/06 10:37:48;;;;;;;;;;;;;;;;;;5011719;28;19951;-74
2023/09/06 10:40:14;;;;;;;;;;;;;;;;;;5011718;28;19924;-73
2023/09/06 10:42:40;;;;;;;;;;;;;;;;;;5011517;28;20591;-74
2023/09/06 10:45:06;;;;;;;;;;;;;;;;;;4993968;28;20388;-74
2023/09/06 10:47:35;;;;;;;;;;;;;;;;;;5011544;28;19921;-74
2023/09/06 10:50:01;;;;;;;;;;;;;;;;;;5011681;28;20396;-74
2023/09/06 10:52:27;;;;;;;;;;;;;;;;;;5011638;28;19905;-74
2023/09/06 10:54:53;;;;;;;;;;;;;;;;;;5011591;28;19910;-73
2023/09/06 10:57:19;;;;;;;;;;;;;;;;;;5011532;28;20328;-73
2023/09/06 10:59:45;;;;;;;;;;;;;;;;;;5011425;28;20297;-73
2023/09/06 11:02:11;;;;;;;;;;;;;;;;;;5014534;28;19953;-73
2023/09/06 11:04:37;;;;;;;;;;;;;;;;;;5015241;28;20578;-71
2023/09/06 11:07:09;;;;;;;;;;;;;;;;;;5015112;28;19996;-74
2023/09/06 11:09:35;;;;;;;;;;;;;;;;;;5015093;28;19992;-72
2023/09/06 11:12:03;;;;;;;;;;;;;;;;;;5014888;28;20361;-74
2023/09/06 11:14:29;;;;;;;;;;;;;;;;;;5015277;28;19944;-73
2023/09/06 11:16:55;;;;;;;;;;;;;;;;;;5015084;28;20369;-73
2023/09/06 11:19:21;;;;;;;;;;;;;;;;;;5025475;28;19996;-73
2023/09/06 11:21:47;;;;;;;;;;;;;;;;;;5034496;28;19927;-73
2023/09/06 11:24:13;;;;;;;;;;;;;;;;;;5034682;28;19908;-74
2023/09/06 11:26:43;;;;;;;;;;;;;;;;;;5029786;28;19924;-74
2023/09/06 11:29:09;;;;;;;;;;;;;;;;;;5034507;28;19905;-74
2023/09/06 11:31:35;;;;;;;;;;;;;;;;;;5028194;28;19920;-74
2023/09/06 11:34:01;;;;;;;;;;;;;;;;;;5034356;28;19905;-73
2023/09/06 11:36:30;;;;;;;;;;;;;;;;;;5034075;28;19905;-74
2023/09/06 11:38:57;;;;;;;;;;;;;;;;;;5034170;28;19905;-74
2023/09/06 11:41:23;;;;;;;;;;;;;;;;;;5034200;28;19944;-74
2023/09/06 11:43:52;;;;;;;;;;;;;;;;;;5032885;28;19905;-73
2023/09/06 11:46:17;;;;;;;;;;;;;;;;;;5033806;28;20007;-73
2023/09/06 11:48:44;;;;;;;;;;;;;;;;;;5032599;28;20406;-73
2023/09/06 11:51:12;;;;;;;;;;;;;;;;;;5033981;28;19905;-73
2023/09/06 11:53:40;;;;;;;;;;;;;;;;;;5034911;28;20388;-72
2023/09/06 11:56:07;;;;;;;;;;;;;;;;;;5033796;28;19904;-73
2023/09/06 11:58:35;;;;;;;;;;;;;;;;;;5031837;28;19909;-73
2023/09/06 12:01:05;;;;;;;;;;;;;;;;;;5032042;28;20003;-73
2023/09/06 12:03:35;;;;;;;;;;;;;;;;;;5032151;28;20288;-74
2023/09/06 12:06:02;;;;;;;;;;;;;;;;;;5032284;28;20001;-74
2023/09/06 12:08:31;;;;;;;;;;;;;;;;;;5014167;28;20384;-73
2023/09/06 12:11:10;;;;;;;;;;;;;;;;;;5032759;28;20399;-73
2023/09/06 12:13:37;;;;;;;;;;;;;;;;;;5033006;28;19909;-74
2023/09/06 12:16:04;;;;;;;;;;;;;;;;;;5033890;28;19913;-74
2023/09/06 12:18:30;;;;;;;;;;;;;;;;;;5032164;28;19955;-73
2023/09/06 12:20:56;;;;;;;;;;;;;;;;;;5032014;28;20423;-73
2023/09/06 12:23:22;;;;;;;;;;;;;;;;;;5032961;28;19950;-73
2023/09/06 12:25:48;;;;;;;;;;;;;;;;;;5032953;28;19913;-73
2023/09/06 12:28:14;;;;;;;;;;;;;;;;;;5033181;28;20047;-73
2023/09/06 12:30:40;;;;;;;;;;;;;;;;;;5033220;28;19916;-74
2023/09/06 12:33:06;;;;;;;;;;;;;;;;;;5014061;28;20381;-73
2023/09/06 12:35:37;;;;;;;;;;;;;;;;;;5033331;28;20035;-73
2023/09/06 12:38:03;;;;;;;;;;;;;;;;;;5032920;28;19909;-73
2023/09/06 12:40:31;;;;;;;;;;;;;;;;;;5033254;28;20419;-73
2023/09/06 12:42:57;;;;;;;;;;;;;;;;;;5033333;28;19905;-73
2023/09/06 12:45:23;;;;;;;;;;;;;;;;;;5032658;28;20008;-73
2023/09/06 12:47:48;;;;;;;;;;;;;;;;;;5032764;28;19940;-73
2023/09/06 12:50:14;;;;;;;;;;;;;;;;;;5033015;28;20011;-72
2023/09/06 12:52:40;;;;;;;;;;;;;;;;;;5032710;28;19911;-73
2023/09/06 12:55:06;;;;;;;;;;;;;;;;;;5032820;28;19905;-73
2023/09/06 12:57:32;;;;;;;;;;;;;;;;;;5032556;28;19995;-73
2023/09/06 12:59:59;;;;;;;;;;;;;;;;;;5033192;28;20323;-73
2023/09/06 13:02:24;;;;;;;;;;;;;;;;;;5015418;28;19905;-73
2023/09/06 13:04:50;;;;;;;;;;;;;;;;;;5032795;28;19919;-73
2023/09/06 13:07:16;;;;;;;;;;;;;;;;;;5032603;28;19905;-72
2023/09/06 13:09:42;;;;;;;;;;;;;;;;;;5032817;28;20394;-73
2023/09/06 13:12:10;;;;;;;;;;;;;;;;;;5031375;28;20361;-74
2023/09/06 13:14:36;;;;;;;;;;;;;;;;;;5032448;28;20034;-72
2023/09/06 13:17:04;;;;;;;;;;;;;;;;;;5032529;28;20499;-74
2023/09/06 13:19:30;;;;;;;;;;;;;;;;;;5032003;28;19911;-73
2023/09/06 13:21:56;;;;;;;;;;;;;;;;;;5032249;28;19908;-73
2023/09/06 13:24:21;;;;;;;;;;;;;;;;;;5031979;28;19975;-73
2023/09/06 13:26:49;;;;;;;;;;;;;;;;;;5032321;28;19936;-73
2023/09/06 13:29:15;;;;;;;;;;;;;;;;;;5015045;28;19975;-74
2023/09/06 13:31:41;;;;;;;;;;;;;;;;;;5032898;28;20361;-73
2023/09/06 13:34:07;;;;;;;;;;;;;;;;;;5032881;28;19992;-72
2023/09/06 13:36:36;;;;;;;;;;;;;;;;;;5014561;28;19908;-73
2023/09/06 13:39:03;;;;;;;;;;;;;;;;;;5032468;28;19958;-72
2023/09/06 13:41:29;;;;;;;;;;;;;;;;;;5034315;28;20365;-73
2023/09/06 13:43:55;;;;;;;;;;;;;;;;;;5032299;28;19916;-72
2023/09/06 13:46:21;;;;;;;;;;;;;;;;;;5035823;28;19909;-72
2023/09/06 13:48:47;;;;;;;;;;;;;;;;;;5035863;28;19915;-72
2023/09/06 13:51:13;;;;;;;;;;;;;;;;;;5035203;28;19913;-72
2023/09/06 13:53:39;;;;;;;;;;;;;;;;;;5032934;28;19905;-73
2023/09/06 13:56:05;;;;;;;;;;;;;;;;;;5014918;28;19904;-73
2023/09/06 13:58:31;;;;;;;;;;;;;;;;;;5031828;28;20262;-73
2023/09/06 14:00:57;;;;;;;;;;;;;;;;;;5014405;28;19951;-73
2023/09/06 14:03:24;;;;;;;;;;;;;;;;;;5031937;28;19909;-72
2023/09/06 14:05:49;;;;;;;;;;;;;;;;;;5031657;28;19913;-74
2023/09/06 14:08:15;;;;;;;;;;;;;;;;;;5031788;28;20399;-73
2023/09/06 14:10:41;;;;;;;;;;;;;;;;;;5031910;28;20011;-72
2023/09/06 14:13:07;;;;;;;;;;;;;;;;;;5033540;28;19909;-73
2023/09/06 14:15:33;;;;;;;;;;;;;;;;;;5037483;28;19909;-74
2023/09/06 14:17:59;;;;;;;;;;;;;;;;;;5036040;28;20264;-74
2023/09/06 14:20:25;;;;;;;;;;;;;;;;;;5034720;28;19963;-74
2023/09/06 14:22:51;;;;;;;;;;;;;;;;;;5040650;28;19951;-74
2023/09/06 14:25:17;;;;;;;;;;;;;;;;;;5038697;28;19921;-74
2023/09/06 14:27:43;;;;;;;;;;;;;;;;;;5045188;28;19911;-74
2023/09/06 14:30:08;;;;;;;;;;;;;;;;;;5031518;28;19905;-74
2023/09/06 14:32:35;;;;;;;;;;;;;;;;;;5031365;28;20249;-74
2023/09/06 14:35:01;;;;;;;;;;;;;;;;;;5025949;28;19913;-74
2023/09/06 14:37:26;;;;;;;;;;;;;;;;;;5017276;28;20353;-74
2023/09/06 14:39:52;;;;;;;;;;;;;;;;;;5035294;28;20321;-73
2023/09/06 14:42:18;;;;;;;;;;;;;;;;;;5035465;28;19951;-74
2023/09/06 14:44:44;;;;;;;;;;;;;;;;;;5017349;28;19948;-74
2023/09/06 14:47:11;;;;;;;;;;;;;;;;;;5035232;28;19912;-74
2023/09/06 14:49:38;;;;;;;;;;;;;;;;;;5035130;28;20372;-75
2023/09/06 14:52:04;;;;;;;;;;;;;;;;;;5035320;28;19959;-74
2023/09/06 14:54:30;;;;;;;;;;;;;;;;;;5017407;28;19905;-73
2023/09/06 14:56:58;;;;;;;;;;;;;;;;;;5017445;28;20427;-74
2023/09/06 14:59:24;;;;;;;;;;;;;;;;;;5034756;28;19909;-74
2023/09/06 15:01:49;;;;;;;;;;;;;;;;;;5035225;28;20379;-74
2023/09/06 15:04:15;;;;;;;;;;;;;;;;;;5035192;28;20395;-73
2023/09/06 15:06:41;;;;;;;;;;;;;;;;;;5034855;28;19916;-74
2023/09/06 15:09:07;;;;;;;;;;;;;;;;;;5035044;28;19912;-74
2023/09/06 15:11:33;;;;;;;;;;;;;;;;;;5034998;28;19909;-74
2023/09/06 15:13:59;;;;;;;;;;;;;;;;;;5034933;28;19958;-75
2023/09/06 15:16:25;;;;;;;;;;;;;;;;;;5034818;28;19951;-75
2023/09/06 15:18:51;;;;;;;;;;;;;;;;;;5016870;28;19959;-74
2023/09/06 15:21:17;;;;;;;;;;;;;;;;;;5017227;28;20283;-74
2023/09/06 15:23:44;;;;;;;;;;;;;;;;;;5032347;28;19913;-75
2023/09/06 15:29:05;;;;;;;;;;;;;;;;;;5014616;28;19905;-78
2023/09/06 15:31:39;;;;;;;;;;;;;;;;;;5037853;28;20419;-76
2023/09/06 15:34:11;;;;;;;;;;;;;;;;;;5035524;28;19932;-76
2023/09/06 15:36:37;;;;;;;;;;;;;;;;;;5030593;28;20011;-76
2023/09/06 15:39:08;;;;;;;;;;;;;;;;;;5020659;28;19955;-75
2023/09/06 15:41:38;;;;;;;;;;;;;;;;;;5017983;28;19913;-77
2023/09/06 15:44:11;;;;;;;;;;;;;;;;;;5014530;28;19941;-77
2023/09/06 15:46:38;;;;;;;;;;;;;;;;;;4997432;28;19996;-77
2023/09/06 15:49:04;;;;;;;;;;;;;;;;;;5014591;28;20008;-77
2023/09/06 15:51:43;;;;;;;;;;;;;;;;;;;;;
2023/09/06 15:54:12;;;;;;;;;;;;;;;;;;5035189;28;19905;-77
2023/09/06 15:56:47;;;;;;;;;;;;;;;;;;5034105;28;19909;-76
2023/09/06 15:59:16;;;;;;;;;;;;;;;;;;5034546;28;20335;-76
2023/09/06 16:01:42;;;;;;;;;;;;;;;;;;5034278;28;20012;-77
2023/09/06 16:04:08;;;;;;;;;;;;;;;;;;5034272;28;20458;-75
2023/09/06 16:09:37;;;;;;;;;;;;;;;;;;5011787;28;19912;-76
2023/09/06 16:12:15;;;;;;;;;;;;;;;;;;;;;
2023/09/06 16:14:46;;;;;;;;;;;;;;;;;;5011814;28;19906;-76
2023/09/06 16:17:23;;;;;;;;;;;;;;;;;;5023677;28;20435;-77
2023/09/06 16:20:02;;;;;;;;;;;;;;;;;;5030801;28;19909;-77
2023/09/06 16:22:29;;;;;;;;;;;;;;;;;;5033882;28;19944;-76
2023/09/06 16:24:55;;;;;;;;;;;;;;;;;;5033417;28;19912;-76
2023/09/06 16:27:30;;;;;;;;;;;;;;;;;;5033284;28;20423;-76
2023/09/06 16:30:05;;;;;;;;;;;;;;;;;;5033217;28;19912;-76
2023/09/06 16:32:31;;;;;;;;;;;;;;;;;;5015785;28;19920;-76
2023/09/06 16:35:07;;;;;;;;;;;;;;;;;;5033415;28;19909;-76
2023/09/06 16:37:33;;;;;;;;;;;;;;;;;;5016606;28;19952;-76
2023/09/06 16:39:59;;;;;;;;;;;;;;;;;;5013651;28;19914;-76
2023/09/06 16:42:25;;;;;;;;;;;;;;;;;;5013916;28;19905;-77
2023/09/06 16:50:10;;;;;;;;;;;;;;;;;;;;;
2023/09/06 16:52:39;;;;;;;;;;;;;;;;;;5013252;28;19913;-77
2023/09/06 16:55:23;;;;;;;;;;;;;;;;;;5013180;28;19909;-76
2023/09/06 17:00:47;;;;;;;;;;;;;;;;;;5012887;28;19913;-77
2023/09/06 17:06:09;;;;;;;;;;;;;;;;;;4994276;28;19923;-78
2023/09/06 17:08:47;;;;;;;;;;;;;;;;;;4994326;28;19969;-76
2023/09/06 17:17:00;;;;;;;;;;;;;;;;;;4992615;28;19906;-77
2023/09/06 17:19:26;;;;;;;;;;;;;;;;;;4993604;28;19956;-78
2023/09/06 17:21:55;;;;;;;;;;;;;;;;;;4993815;28;19929;-78
2023/09/06 17:33:10;;;;;;;;;;;;;;;;;;4939016;29;19942;-78